Dallas, Wisconsin
Current Conditions -  °F | °C
As of 5:35 AM on Tuesday 21 Oct 2014 (Local Time) from KY23 Reporting Station
Overcast Overcast  
Wind Chill: 41°   Ceiling: 2500
Heat Index: 44°   Visibility: 10mi
Dew Point: 36°   Wind: 6mph
Humidity: 74%   Direction: 30°NNE
Pressure: 30.17"   Gusts: NA
Location:  45.26°N, 91.81°W
Report Text: KY23 211035Z AUTO 03005KT 10SM OVC025 07/02 A3017 RMK AO2 T00670024
Loading
Personal Weather Stations






























Interactive Weather Map
Tropical Storm Tracking
New forecast layout! Learn more

10-Day Weather Forecast

Advertisements
Track Severe Weather on mobile